Greater Binghamton/Edwin A Link field
KBGM : now visible

Airfield :











YOU CAN JOIN US ON...

 
LOGIN :

Register | Disclaimer

   EN    FR    IT 

 









Legend :    VFR   Marginal VFR   IFR   Intensive IFR   Very Intensive IFR
Visi :
Ceiling :
>= 8 km
>= 3000ft
5 to 8 km
1000 to 3000 ft
1500m to 5 km
500 to 1000 ft
800 to 1500m
200 to 500 ft
< 800m
< 200 ft
Symbols :   Thunderstorms  Fog  Heavy snow  Heavy precipitations  Wind > 20 kt






- Airport Elevation : 1636 ft
- IATA code : BGM


KBGM - Greater Binghamton/Edwin A Link field

CURRENT METAR :
  • 290353Z 31004KT 10SM BKN044 13/11 A2989 RMK AO2 SLP117 T01280111

EXPIRED METARs :
  • 290322Z 36006KT 10SM FEW011 BKN036 OVC100 13/11 A2988 RMK AO2 T01280111
  • 290315Z 33005KT 10SM SCT011 BKN019 OVC100 13/12 A2988 RMK AO2 T01280117
  • 290253Z 29005KT 10SM BKN011 BKN020 OVC070 13/12 A2988 RMK AO2 SLP116 T01330117 51012
  • 290246Z 30005KT 10SM BKN013 OVC070 13/12 A2988 RMK AO2 T01330117
  • 290153Z 30006KT 10SM FEW014 OVC070 13/11 A2988 RMK AO2 SLP113 T01330111
  • 290053Z 33007KT 10SM SCT033 BKN040 OVC090 14/11 A2986 RMK AO2 SLP108 T01390106
  • 282353Z 31004KT 10SM FEW055 BKN095 15/11 A2985 RMK AO2 LTG DSNT SW RAE52 SLP103 P0000 60020 T01500111 10178 20150 53015

TAF KBGM
Valid from the 29 at 00:00 until the 30 at 00:00 UTC


282329Z 2900/2924 30007G13KT P6SM BKN025
FM290300 29007KT P6SM BKN015
FM290700 32005KT P6SM BKN007
FM291200 33005KT P6SM BKN012
FM291400 32006G11KT P6SM BKN020
FM291700 33007G12KT P6SM BKN035
KZNY FIR / North America



MET'MAP, your aeronautical weather chart ! - Copyright ORBIFLY December 2007 - Disclaimer

ORBIFLY MET'MAP TEAM :

Programming & Development : Alexandra Zaïnal
Original concept : Baudouin d'Aumeries
Technical & hardware support : Manuel Goepfert
Assistance : Marc-Olivier Méhu




SOURCES & CREDITS :

   NOAA       Earth
Advisory